sensor_id;sensor_type;location;lat;lon;timestamp;P1;durP1;ratioP1;P2;durP2;ratioP2
62673;SDS011;62269;47.594;17.638;2024-01-10T00:00:20;42.40;;;24.02;;
62673;SDS011;62269;47.594;17.638;2024-01-10T00:01:19;44.53;;;25.75;;
62673;SDS011;62269;47.594;17.638;2024-01-10T00:02:18;45.75;;;26.98;;
62673;SDS011;62269;47.594;17.638;2024-01-10T00:03:17;44.25;;;26.45;;
62673;SDS011;62269;47.594;17.638;2024-01-10T00:04:16;44.25;;;25.15;;
62673;SDS011;62269;47.594;17.638;2024-01-10T00:05:14;46.10;;;26.70;;
62673;SDS011;62269;47.594;17.638;2024-01-10T00:06:16;48.70;;;26.50;;
62673;SDS011;62269;47.594;17.638;2024-01-10T00:07:14;45.42;;;24.58;;
62673;SDS011;62269;47.594;17.638;2024-01-10T00:08:13;46.15;;;26.98;;
62673;SDS011;62269;47.594;17.638;2024-01-10T00:09:11;44.13;;;27.25;;
62673;SDS011;62269;47.594;17.638;2024-01-10T00:10:10;44.17;;;25.90;;
62673;SDS011;62269;47.594;17.638;2024-01-10T00:11:08;56.80;;;26.95;;
62673;SDS011;62269;47.594;17.638;2024-01-10T00:12:07;47.22;;;27.62;;
62673;SDS011;62269;47.594;17.638;2024-01-10T00:13:06;45.50;;;25.27;;
62673;SDS011;62269;47.594;17.638;2024-01-10T00:14:04;41.80;;;23.65;;
62673;SDS011;62269;47.594;17.638;2024-01-10T00:15:03;47.08;;;25.15;;
62673;SDS011;62269;47.594;17.638;2024-01-10T00:16:03;43.90;;;25.37;;
62673;SDS011;62269;47.594;17.638;2024-01-10T00:17:02;43.13;;;24.00;;
62673;SDS011;62269;47.594;17.638;2024-01-10T00:18:00;44.38;;;25.12;;
62673;SDS011;62269;47.594;17.638;2024-01-10T00:18:59;48.28;;;26.70;;
62673;SDS011;62269;47.594;17.638;2024-01-10T00:19:58;45.30;;;25.65;;
62673;SDS011;62269;47.594;17.638;2024-01-10T00:20:57;43.87;;;25.42;;
62673;SDS011;62269;47.594;17.638;2024-01-10T00:21:56;46.88;;;26.70;;
62673;SDS011;62269;47.594;17.638;2024-01-10T00:22:54;42.35;;;25.55;;
62673;SDS011;62269;47.594;17.638;2024-01-10T00:23:53;46.10;;;26.83;;
62673;SDS011;62269;47.594;17.638;2024-01-10T00:24:51;44.70;;;24.73;;
62673;SDS011;62269;47.594;17.638;2024-01-10T00:25:50;44.25;;;26.25;;
62673;SDS011;62269;47.594;17.638;2024-01-10T00:26:48;42.85;;;25.55;;
62673;SDS011;62269;47.594;17.638;2024-01-10T00:27:47;40.75;;;25.58;;
62673;SDS011;62269;47.594;17.638;2024-01-10T00:28:45;45.47;;;25.73;;
62673;SDS011;62269;47.594;17.638;2024-01-10T00:29:43;46.47;;;26.02;;
62673;SDS011;62269;47.594;17.638;2024-01-10T00:30:42;39.95;;;24.75;;
62673;SDS011;62269;47.594;17.638;2024-01-10T00:31:40;48.97;;;25.98;;
62673;SDS011;62269;47.594;17.638;2024-01-10T00:32:39;46.83;;;25.75;;
62673;SDS011;62269;47.594;17.638;2024-01-10T00:33:38;44.65;;;24.70;;
62673;SDS011;62269;47.594;17.638;2024-01-10T00:34:36;41.42;;;25.27;;
62673;SDS011;62269;47.594;17.638;2024-01-10T00:35:35;39.75;;;24.45;;
62673;SDS011;62269;47.594;17.638;2024-01-10T00:36:33;46.92;;;25.67;;
62673;SDS011;62269;47.594;17.638;2024-01-10T00:37:32;40.28;;;24.10;;
62673;SDS011;62269;47.594;17.638;2024-01-10T00:38:31;41.33;;;25.20;;
62673;SDS011;62269;47.594;17.638;2024-01-10T00:39:30;46.60;;;25.77;;
62673;SDS011;62269;47.594;17.638;2024-01-10T00:40:28;45.20;;;26.90;;
62673;SDS011;62269;47.594;17.638;2024-01-10T00:41:26;43.60;;;25.50;;
62673;SDS011;62269;47.594;17.638;2024-01-10T00:42:24;47.60;;;27.25;;
62673;SDS011;62269;47.594;17.638;2024-01-10T00:43:22;39.97;;;23.67;;
62673;SDS011;62269;47.594;17.638;2024-01-10T00:44:21;42.03;;;24.33;;
62673;SDS011;62269;47.594;17.638;2024-01-10T00:45:19;41.42;;;22.95;;
62673;SDS011;62269;47.594;17.638;2024-01-10T00:46:18;41.25;;;25.58;;
62673;SDS011;62269;47.594;17.638;2024-01-10T00:47:16;43.38;;;24.95;;
62673;SDS011;62269;47.594;17.638;2024-01-10T00:48:15;44.80;;;24.60;;
62673;SDS011;62269;47.594;17.638;2024-01-10T00:49:15;44.95;;;24.55;;
62673;SDS011;62269;47.594;17.638;2024-01-10T00:50:13;42.90;;;25.92;;
62673;SDS011;62269;47.594;17.638;2024-01-10T00:51:12;46.88;;;27.30;;
62673;SDS011;62269;47.594;17.638;2024-01-10T00:52:11;42.90;;;24.45;;
62673;SDS011;62269;47.594;17.638;2024-01-10T00:53:09;47.50;;;25.80;;
62673;SDS011;62269;47.594;17.638;2024-01-10T00:54:08;44.72;;;25.62;;
62673;SDS011;62269;47.594;17.638;2024-01-10T00:55:06;41.30;;;24.87;;
62673;SDS011;62269;47.594;17.638;2024-01-10T00:56:06;42.45;;;24.67;;
62673;SDS011;62269;47.594;17.638;2024-01-10T00:57:04;44.05;;;25.73;;
62673;SDS011;62269;47.594;17.638;2024-01-10T00:58:02;44.97;;;23.90;;
62673;SDS011;62269;47.594;17.638;2024-01-10T00:59:00;42.13;;;24.42;;
62673;SDS011;62269;47.594;17.638;2024-01-10T00:59:58;44.38;;;25.35;;
62673;SDS011;62269;47.594;17.638;2024-01-10T01:00:57;43.87;;;25.20;;
62673;SDS011;62269;47.594;17.638;2024-01-10T01:02:00;47.38;;;25.83;;
62673;SDS011;62269;47.594;17.638;2024-01-10T01:02:58;43.55;;;25.23;;
62673;SDS011;62269;47.594;17.638;2024-01-10T01:03:56;42.45;;;25.27;;
62673;SDS011;62269;47.594;17.638;2024-01-10T01:04:55;47.67;;;27.20;;
62673;SDS011;62269;47.594;17.638;2024-01-10T01:05:53;36.70;;;24.23;;
62673;SDS011;62269;47.594;17.638;2024-01-10T01:06:52;43.87;;;25.20;;
62673;SDS011;62269;47.594;17.638;2024-01-10T01:07:50;45.10;;;25.12;;
62673;SDS011;62269;47.594;17.638;2024-01-10T01:08:48;44.35;;;25.10;;
62673;SDS011;62269;47.594;17.638;2024-01-10T01:09:46;47.97;;;26.95;;
62673;SDS011;62269;47.594;17.638;2024-01-10T01:10:45;42.65;;;24.77;;
62673;SDS011;62269;47.594;17.638;2024-01-10T01:11:43;40.53;;;23.92;;
62673;SDS011;62269;47.594;17.638;2024-01-10T01:12:43;44.67;;;24.48;;
62673;SDS011;62269;47.594;17.638;2024-01-10T01:13:41;40.58;;;25.23;;
62673;SDS011;62269;47.594;17.638;2024-01-10T01:14:40;43.80;;;23.45;;
62673;SDS011;62269;47.594;17.638;2024-01-10T01:15:38;39.90;;;23.65;;
62673;SDS011;62269;47.594;17.638;2024-01-10T01:16:36;38.42;;;23.50;;
62673;SDS011;62269;47.594;17.638;2024-01-10T01:17:34;40.67;;;23.50;;
62673;SDS011;62269;47.594;17.638;2024-01-10T01:18:34;44.63;;;25.37;;
62673;SDS011;62269;47.594;17.638;2024-01-10T01:19:32;42.30;;;24.27;;
62673;SDS011;62269;47.594;17.638;2024-01-10T01:20:32;39.53;;;23.98;;
62673;SDS011;62269;47.594;17.638;2024-01-10T01:21:30;44.35;;;24.92;;
62673;SDS011;62269;47.594;17.638;2024-01-10T01:22:29;40.83;;;23.92;;
62673;SDS011;62269;47.594;17.638;2024-01-10T01:23:28;40.75;;;23.50;;
62673;SDS011;62269;47.594;17.638;2024-01-10T01:24:37;42.88;;;24.20;;
62673;SDS011;62269;47.594;17.638;2024-01-10T01:25:35;44.65;;;26.77;;
62673;SDS011;62269;47.594;17.638;2024-01-10T01:26:34;39.88;;;25.05;;
62673;SDS011;62269;47.594;17.638;2024-01-10T01:27:33;41.75;;;23.98;;
62673;SDS011;62269;47.594;17.638;2024-01-10T01:28:31;43.78;;;24.02;;
62673;SDS011;62269;47.594;17.638;2024-01-10T01:29:29;43.60;;;24.48;;
62673;SDS011;62269;47.594;17.638;2024-01-10T01:30:27;36.55;;;23.52;;
62673;SDS011;62269;47.594;17.638;2024-01-10T01:31:26;48.80;;;24.30;;
62673;SDS011;62269;47.594;17.638;2024-01-10T01:32:25;40.78;;;25.08;;
62673;SDS011;62269;47.594;17.638;2024-01-10T01:33:23;38.78;;;23.70;;
62673;SDS011;62269;47.594;17.638;2024-01-10T01:34:22;41.63;;;23.38;;
62673;SDS011;62269;47.594;17.638;2024-01-10T01:35:21;44.33;;;24.37;;
62673;SDS011;62269;47.594;17.638;2024-01-10T01:36:20;42.42;;;24.33;;
62673;SDS011;62269;47.594;17.638;2024-01-10T01:37:19;39.42;;;23.38;;
62673;SDS011;62269;47.594;17.638;2024-01-10T01:38:18;40.95;;;23.30;;
62673;SDS011;62269;47.594;17.638;2024-01-10T01:39:17;41.37;;;23.58;;
62673;SDS011;62269;47.594;17.638;2024-01-10T01:40:17;43.70;;;25.70;;
62673;SDS011;62269;47.594;17.638;2024-01-10T01:41:15;40.95;;;25.33;;
62673;SDS011;62269;47.594;17.638;2024-01-10T01:42:15;48.17;;;27.40;;
62673;SDS011;62269;47.594;17.638;2024-01-10T01:43:19;39.38;;;24.02;;
62673;SDS011;62269;47.594;17.638;2024-01-10T01:44:18;37.53;;;21.55;;
62673;SDS011;62269;47.594;17.638;2024-01-10T01:45:16;43.25;;;24.05;;
62673;SDS011;62269;47.594;17.638;2024-01-10T01:46:15;45.10;;;23.65;;
62673;SDS011;62269;47.594;17.638;2024-01-10T01:47:13;37.22;;;22.70;;
62673;SDS011;62269;47.594;17.638;2024-01-10T01:48:11;40.28;;;23.80;;
62673;SDS011;62269;47.594;17.638;2024-01-10T01:49:10;37.22;;;23.67;;
62673;SDS011;62269;47.594;17.638;2024-01-10T01:50:08;43.83;;;25.95;;
62673;SDS011;62269;47.594;17.638;2024-01-10T01:51:07;40.00;;;25.42;;
62673;SDS011;62269;47.594;17.638;2024-01-10T01:52:05;39.10;;;22.90;;
62673;SDS011;62269;47.594;17.638;2024-01-10T01:53:03;36.25;;;23.00;;
62673;SDS011;62269;47.594;17.638;2024-01-10T01:54:01;46.17;;;24.60;;
62673;SDS011;62269;47.594;17.638;2024-01-10T01:54:59;40.33;;;23.50;;
62673;SDS011;62269;47.594;17.638;2024-01-10T01:55:56;39.35;;;23.45;;
62673;SDS011;62269;47.594;17.638;2024-01-10T01:56:54;41.15;;;23.73;;
62673;SDS011;62269;47.594;17.638;2024-01-10T01:57:51;43.47;;;24.20;;
62673;SDS011;62269;47.594;17.638;2024-01-10T01:58:50;44.63;;;24.55;;
62673;SDS011;62269;47.594;17.638;2024-01-10T01:59:49;38.13;;;23.70;;
62673;SDS011;62269;47.594;17.638;2024-01-10T02:00:47;41.30;;;23.95;;
62673;SDS011;62269;47.594;17.638;2024-01-10T02:01:45;42.78;;;23.23;;
62673;SDS011;62269;47.594;17.638;2024-01-10T02:02:43;40.28;;;22.98;;
62673;SDS011;62269;47.594;17.638;2024-01-10T02:03:41;40.30;;;23.85;;
62673;SDS011;62269;47.594;17.638;2024-01-10T02:04:39;40.70;;;22.73;;
62673;SDS011;62269;47.594;17.638;2024-01-10T02:05:37;44.80;;;26.58;;
62673;SDS011;62269;47.594;17.638;2024-01-10T02:06:34;40.92;;;23.98;;
62673;SDS011;62269;47.594;17.638;2024-01-10T02:07:32;42.80;;;23.00;;
62673;SDS011;62269;47.594;17.638;2024-01-10T02:08:31;37.60;;;23.33;;
62673;SDS011;62269;47.594;17.638;2024-01-10T02:09:32;42.35;;;23.62;;
62673;SDS011;62269;47.594;17.638;2024-01-10T02:10:29;42.90;;;24.40;;
62673;SDS011;62269;47.594;17.638;2024-01-10T02:11:27;38.85;;;23.77;;
62673;SDS011;62269;47.594;17.638;2024-01-10T02:12:25;39.58;;;23.25;;
62673;SDS011;62269;47.594;17.638;2024-01-10T02:13:22;41.88;;;23.35;;
62673;SDS011;62269;47.594;17.638;2024-01-10T02:14:20;38.08;;;24.30;;
62673;SDS011;62269;47.594;17.638;2024-01-10T02:15:18;38.20;;;24.95;;
62673;SDS011;62269;47.594;17.638;2024-01-10T02:16:15;39.28;;;23.98;;
62673;SDS011;62269;47.594;17.638;2024-01-10T02:17:13;36.22;;;21.67;;
62673;SDS011;62269;47.594;17.638;2024-01-10T02:18:12;38.60;;;22.20;;
62673;SDS011;62269;47.594;17.638;2024-01-10T02:19:32;40.63;;;24.15;;
62673;SDS011;62269;47.594;17.638;2024-01-10T02:20:32;41.17;;;22.48;;
62673;SDS011;62269;47.594;17.638;2024-01-10T02:21:29;39.78;;;24.87;;
62673;SDS011;62269;47.594;17.638;2024-01-10T02:22:27;40.08;;;23.08;;
62673;SDS011;62269;47.594;17.638;2024-01-10T02:23:24;38.33;;;22.42;;
62673;SDS011;62269;47.594;17.638;2024-01-10T02:24:22;41.67;;;24.80;;
62673;SDS011;62269;47.594;17.638;2024-01-10T02:25:19;40.65;;;25.48;;
62673;SDS011;62269;47.594;17.638;2024-01-10T02:26:18;39.20;;;22.42;;
62673;SDS011;62269;47.594;17.638;2024-01-10T02:27:16;40.30;;;23.25;;
62673;SDS011;62269;47.594;17.638;2024-01-10T02:28:13;40.42;;;22.92;;
62673;SDS011;62269;47.594;17.638;2024-01-10T02:29:11;35.03;;;22.42;;
62673;SDS011;62269;47.594;17.638;2024-01-10T02:30:09;40.15;;;23.23;;
62673;SDS011;62269;47.594;17.638;2024-01-10T02:31:08;42.53;;;23.50;;
62673;SDS011;62269;47.594;17.638;2024-01-10T02:32:06;41.47;;;24.60;;
62673;SDS011;62269;47.594;17.638;2024-01-10T02:33:03;38.95;;;23.55;;
62673;SDS011;62269;47.594;17.638;2024-01-10T02:34:01;38.25;;;23.83;;
62673;SDS011;62269;47.594;17.638;2024-01-10T02:34:59;39.63;;;23.42;;
62673;SDS011;62269;47.594;17.638;2024-01-10T02:35:57;42.97;;;24.65;;
62673;SDS011;62269;47.594;17.638;2024-01-10T02:36:55;42.42;;;22.52;;
62673;SDS011;62269;47.594;17.638;2024-01-10T02:37:53;38.88;;;24.60;;
62673;SDS011;62269;47.594;17.638;2024-01-10T02:38:51;42.97;;;24.58;;
62673;SDS011;62269;47.594;17.638;2024-01-10T02:39:49;40.45;;;24.10;;
62673;SDS011;62269;47.594;17.638;2024-01-10T02:40:47;37.85;;;24.05;;
62673;SDS011;62269;47.594;17.638;2024-01-10T02:41:45;42.10;;;24.67;;
62673;SDS011;62269;47.594;17.638;2024-01-10T02:42:42;43.72;;;26.62;;
62673;SDS011;62269;47.594;17.638;2024-01-10T02:43:39;42.65;;;24.63;;
62673;SDS011;62269;47.594;17.638;2024-01-10T02:44:37;38.97;;;24.73;;
62673;SDS011;62269;47.594;17.638;2024-01-10T02:45:35;46.30;;;26.00;;
62673;SDS011;62269;47.594;17.638;2024-01-10T02:46:33;42.40;;;25.00;;
62673;SDS011;62269;47.594;17.638;2024-01-10T02:47:30;43.03;;;25.08;;
62673;SDS011;62269;47.594;17.638;2024-01-10T02:48:28;41.13;;;25.42;;
62673;SDS011;62269;47.594;17.638;2024-01-10T02:49:26;43.53;;;26.45;;
62673;SDS011;62269;47.594;17.638;2024-01-10T02:50:23;45.47;;;26.73;;
62673;SDS011;62269;47.594;17.638;2024-01-10T02:51:21;44.75;;;27.27;;
62673;SDS011;62269;47.594;17.638;2024-01-10T02:52:21;46.13;;;24.37;;
62673;SDS011;62269;47.594;17.638;2024-01-10T02:53:18;48.25;;;25.00;;
62673;SDS011;62269;47.594;17.638;2024-01-10T02:54:15;43.45;;;26.30;;
62673;SDS011;62269;47.594;17.638;2024-01-10T02:55:13;48.20;;;27.50;;
62673;SDS011;62269;47.594;17.638;2024-01-10T02:56:10;43.65;;;25.62;;
62673;SDS011;62269;47.594;17.638;2024-01-10T02:57:08;44.70;;;25.88;;
62673;SDS011;62269;47.594;17.638;2024-01-10T02:58:05;45.95;;;26.60;;
62673;SDS011;62269;47.594;17.638;2024-01-10T02:59:02;43.10;;;25.30;;
62673;SDS011;62269;47.594;17.638;2024-01-10T03:00:00;42.15;;;24.80;;
62673;SDS011;62269;47.594;17.638;2024-01-10T03:00:57;43.33;;;24.60;;
62673;SDS011;62269;47.594;17.638;2024-01-10T03:01:58;39.40;;;24.63;;
62673;SDS011;62269;47.594;17.638;2024-01-10T03:02:55;41.97;;;25.05;;
62673;SDS011;62269;47.594;17.638;2024-01-10T03:03:53;43.55;;;25.88;;
62673;SDS011;62269;47.594;17.638;2024-01-10T03:04:51;43.55;;;24.77;;
62673;SDS011;62269;47.594;17.638;2024-01-10T03:05:49;42.88;;;24.95;;
62673;SDS011;62269;47.594;17.638;2024-01-10T03:06:47;42.78;;;25.45;;
62673;SDS011;62269;47.594;17.638;2024-01-10T03:07:46;41.72;;;25.27;;
62673;SDS011;62269;47.594;17.638;2024-01-10T03:08:44;45.40;;;25.35;;
62673;SDS011;62269;47.594;17.638;2024-01-10T03:09:42;42.80;;;25.20;;
62673;SDS011;62269;47.594;17.638;2024-01-10T03:10:40;44.20;;;26.40;;
62673;SDS011;62269;47.594;17.638;2024-01-10T03:11:38;44.80;;;25.80;;
62673;SDS011;62269;47.594;17.638;2024-01-10T03:12:36;43.97;;;25.05;;
62673;SDS011;62269;47.594;17.638;2024-01-10T03:13:34;40.08;;;24.37;;
62673;SDS011;62269;47.594;17.638;2024-01-10T03:14:33;43.60;;;25.15;;
62673;SDS011;62269;47.594;17.638;2024-01-10T03:15:31;43.10;;;24.40;;
62673;SDS011;62269;47.594;17.638;2024-01-10T03:16:30;44.70;;;25.55;;
62673;SDS011;62269;47.594;17.638;2024-01-10T03:17:27;41.15;;;26.05;;
62673;SDS011;62269;47.594;17.638;2024-01-10T03:18:25;44.70;;;24.70;;
62673;SDS011;62269;47.594;17.638;2024-01-10T03:19:22;40.60;;;24.70;;
62673;SDS011;62269;47.594;17.638;2024-01-10T03:20:20;41.35;;;24.95;;
62673;SDS011;62269;47.594;17.638;2024-01-10T03:21:18;41.00;;;25.88;;
62673;SDS011;62269;47.594;17.638;2024-01-10T03:22:21;40.72;;;24.52;;
62673;SDS011;62269;47.594;17.638;2024-01-10T03:23:20;41.53;;;25.67;;
62673;SDS011;62269;47.594;17.638;2024-01-10T03:24:19;42.62;;;26.12;;
62673;SDS011;62269;47.594;17.638;2024-01-10T03:25:17;40.12;;;25.17;;
62673;SDS011;62269;47.594;17.638;2024-01-10T03:26:16;43.85;;;25.48;;
62673;SDS011;62269;47.594;17.638;2024-01-10T03:27:15;44.83;;;25.65;;
62673;SDS011;62269;47.594;17.638;2024-01-10T03:28:16;47.92;;;26.15;;
62673;SDS011;62269;47.594;17.638;2024-01-10T03:29:15;43.87;;;26.45;;
62673;SDS011;62269;47.594;17.638;2024-01-10T03:30:14;42.97;;;27.05;;
62673;SDS011;62269;47.594;17.638;2024-01-10T03:31:15;48.25;;;26.55;;
62673;SDS011;62269;47.594;17.638;2024-01-10T03:32:13;44.10;;;26.15;;
62673;SDS011;62269;47.594;17.638;2024-01-10T03:33:12;41.08;;;26.05;;
62673;SDS011;62269;47.594;17.638;2024-01-10T03:34:11;46.05;;;27.15;;
62673;SDS011;62269;47.594;17.638;2024-01-10T03:35:10;45.22;;;26.27;;
62673;SDS011;62269;47.594;17.638;2024-01-10T03:36:11;46.35;;;26.23;;
62673;SDS011;62269;47.594;17.638;2024-01-10T03:37:10;45.80;;;26.65;;
62673;SDS011;62269;47.594;17.638;2024-01-10T03:38:09;46.72;;;27.02;;
62673;SDS011;62269;47.594;17.638;2024-01-10T03:39:08;42.90;;;25.65;;
62673;SDS011;62269;47.594;17.638;2024-01-10T03:40:07;43.75;;;27.10;;
62673;SDS011;62269;47.594;17.638;2024-01-10T03:41:06;47.30;;;25.65;;
62673;SDS011;62269;47.594;17.638;2024-01-10T03:42:04;44.22;;;26.95;;
62673;SDS011;62269;47.594;17.638;2024-01-10T03:43:03;39.20;;;24.63;;
62673;SDS011;62269;47.594;17.638;2024-01-10T03:44:01;44.80;;;26.48;;
62673;SDS011;62269;47.594;17.638;2024-01-10T03:45:00;46.35;;;25.20;;
62673;SDS011;62269;47.594;17.638;2024-01-10T03:46:00;42.88;;;25.85;;
62673;SDS011;62269;47.594;17.638;2024-01-10T03:46:58;41.60;;;24.85;;
62673;SDS011;62269;47.594;17.638;2024-01-10T03:47:57;45.22;;;27.42;;
62673;SDS011;62269;47.594;17.638;2024-01-10T03:48:55;45.08;;;25.88;;
62673;SDS011;62269;47.594;17.638;2024-01-10T03:49:54;48.92;;;27.13;;
62673;SDS011;62269;47.594;17.638;2024-01-10T03:50:52;44.70;;;26.67;;
62673;SDS011;62269;47.594;17.638;2024-01-10T03:51:51;44.03;;;27.13;;
62673;SDS011;62269;47.594;17.638;2024-01-10T03:52:49;45.10;;;25.30;;
62673;SDS011;62269;47.594;17.638;2024-01-10T03:53:49;43.10;;;25.25;;
62673;SDS011;62269;47.594;17.638;2024-01-10T03:54:48;42.00;;;26.33;;
62673;SDS011;62269;47.594;17.638;2024-01-10T03:55:47;38.88;;;24.98;;
62673;SDS011;62269;47.594;17.638;2024-01-10T03:56:46;44.08;;;23.95;;
62673;SDS011;62269;47.594;17.638;2024-01-10T03:57:44;47.08;;;26.80;;
62673;SDS011;62269;47.594;17.638;2024-01-10T03:58:43;43.33;;;24.63;;
62673;SDS011;62269;47.594;17.638;2024-01-10T03:59:41;42.67;;;25.62;;
62673;SDS011;62269;47.594;17.638;2024-01-10T04:00:40;44.63;;;25.05;;
62673;SDS011;62269;47.594;17.638;2024-01-10T04:01:39;40.53;;;24.85;;
62673;SDS011;62269;47.594;17.638;2024-01-10T04:02:37;39.10;;;24.25;;
62673;SDS011;62269;47.594;17.638;2024-01-10T04:03:36;40.83;;;24.08;;
62673;SDS011;62269;47.594;17.638;2024-01-10T04:04:38;44.90;;;25.83;;
62673;SDS011;62269;47.594;17.638;2024-01-10T04:05:37;40.78;;;24.30;;
62673;SDS011;62269;47.594;17.638;2024-01-10T04:06:36;40.08;;;24.17;;
62673;SDS011;62269;47.594;17.638;2024-01-10T04:07:34;45.10;;;25.50;;
62673;SDS011;62269;47.594;17.638;2024-01-10T04:08:33;37.25;;;23.12;;
62673;SDS011;62269;47.594;17.638;2024-01-10T04:09:31;42.70;;;26.15;;
62673;SDS011;62269;47.594;17.638;2024-01-10T04:10:30;40.38;;;25.05;;
62673;SDS011;62269;47.594;17.638;2024-01-10T04:11:29;42.10;;;24.52;;
62673;SDS011;62269;47.594;17.638;2024-01-10T04:13:10;44.20;;;24.20;;
62673;SDS011;62269;47.594;17.638;2024-01-10T04:15:46;41.97;;;23.67;;
62673;SDS011;62269;47.594;17.638;2024-01-10T04:16:46;41.45;;;24.12;;
62673;SDS011;62269;47.594;17.638;2024-01-10T04:17:47;41.50;;;23.67;;
62673;SDS011;62269;47.594;17.638;2024-01-10T04:18:46;35.90;;;23.42;;
62673;SDS011;62269;47.594;17.638;2024-01-10T04:19:44;38.70;;;22.27;;
62673;SDS011;62269;47.594;17.638;2024-01-10T04:20:43;38.53;;;23.67;;
62673;SDS011;62269;47.594;17.638;2024-01-10T04:21:41;43.83;;;24.67;;
62673;SDS011;62269;47.594;17.638;2024-01-10T04:22:40;45.12;;;25.00;;
62673;SDS011;62269;47.594;17.638;2024-01-10T04:23:38;45.95;;;25.42;;
62673;SDS011;62269;47.594;17.638;2024-01-10T04:24:36;39.33;;;24.27;;
62673;SDS011;62269;47.594;17.638;2024-01-10T04:25:34;37.78;;;24.60;;
62673;SDS011;62269;47.594;17.638;2024-01-10T04:26:33;40.00;;;23.95;;
62673;SDS011;62269;47.594;17.638;2024-01-10T04:27:31;41.80;;;24.08;;
62673;SDS011;62269;47.594;17.638;2024-01-10T04:28:29;36.58;;;22.77;;
62673;SDS011;62269;47.594;17.638;2024-01-10T04:29:27;41.13;;;24.23;;
62673;SDS011;62269;47.594;17.638;2024-01-10T04:30:25;43.03;;;24.63;;
62673;SDS011;62269;47.594;17.638;2024-01-10T04:31:24;37.70;;;22.67;;
62673;SDS011;62269;47.594;17.638;2024-01-10T04:32:23;39.28;;;23.98;;
62673;SDS011;62269;47.594;17.638;2024-01-10T04:33:21;37.25;;;22.08;;
62673;SDS011;62269;47.594;17.638;2024-01-10T04:34:21;35.95;;;23.38;;
62673;SDS011;62269;47.594;17.638;2024-01-10T04:35:20;41.05;;;23.45;;
62673;SDS011;62269;47.594;17.638;2024-01-10T04:36:19;36.05;;;22.70;;
62673;SDS011;62269;47.594;17.638;2024-01-10T04:37:18;38.25;;;21.90;;
62673;SDS011;62269;47.594;17.638;2024-01-10T04:38:16;37.17;;;22.17;;
62673;SDS011;62269;47.594;17.638;2024-01-10T04:39:15;62.72;;;24.87;;
62673;SDS011;62269;47.594;17.638;2024-01-10T04:40:14;38.60;;;22.30;;
62673;SDS011;62269;47.594;17.638;2024-01-10T04:41:11;38.13;;;22.48;;
62673;SDS011;62269;47.594;17.638;2024-01-10T04:42:10;39.10;;;21.60;;
62673;SDS011;62269;47.594;17.638;2024-01-10T04:43:08;40.53;;;22.25;;
62673;SDS011;62269;47.594;17.638;2024-01-10T04:44:07;32.95;;;20.73;;
62673;SDS011;62269;47.594;17.638;2024-01-10T04:45:06;37.15;;;21.67;;
62673;SDS011;62269;47.594;17.638;2024-01-10T04:46:05;38.35;;;21.62;;
62673;SDS011;62269;47.594;17.638;2024-01-10T04:47:03;37.72;;;22.20;;
62673;SDS011;62269;47.594;17.638;2024-01-10T04:48:02;37.50;;;21.10;;
62673;SDS011;62269;47.594;17.638;2024-01-10T04:49:01;38.15;;;22.65;;
62673;SDS011;62269;47.594;17.638;2024-01-10T04:50:00;33.95;;;21.15;;
62673;SDS011;62269;47.594;17.638;2024-01-10T04:50:58;35.92;;;22.55;;
62673;SDS011;62269;47.594;17.638;2024-01-10T04:51:57;35.90;;;20.75;;
62673;SDS011;62269;47.594;17.638;2024-01-10T04:52:56;37.58;;;22.70;;
62673;SDS011;62269;47.594;17.638;2024-01-10T04:53:54;35.95;;;22.05;;
62673;SDS011;62269;47.594;17.638;2024-01-10T04:54:52;35.55;;;21.08;;
62673;SDS011;62269;47.594;17.638;2024-01-10T04:55:51;36.47;;;22.42;;
62673;SDS011;62269;47.594;17.638;2024-01-10T04:56:49;39.15;;;21.87;;
62673;SDS011;62269;47.594;17.638;2024-01-10T04:57:48;32.00;;;19.62;;
62673;SDS011;62269;47.594;17.638;2024-01-10T04:58:47;37.95;;;21.77;;
62673;SDS011;62269;47.594;17.638;2024-01-10T04:59:45;35.60;;;20.92;;
62673;SDS011;62269;47.594;17.638;2024-01-10T05:00:44;35.33;;;20.67;;
62673;SDS011;62269;47.594;17.638;2024-01-10T05:01:42;35.40;;;20.35;;
62673;SDS011;62269;47.594;17.638;2024-01-10T05:02:41;45.00;;;20.55;;
62673;SDS011;62269;47.594;17.638;2024-01-10T05:03:39;35.67;;;21.37;;
62673;SDS011;62269;47.594;17.638;2024-01-10T05:04:37;33.17;;;20.73;;
62673;SDS011;62269;47.594;17.638;2024-01-10T05:05:36;34.65;;;20.52;;
62673;SDS011;62269;47.594;17.638;2024-01-10T05:06:34;35.95;;;21.05;;
62673;SDS011;62269;47.594;17.638;2024-01-10T05:07:33;34.38;;;20.55;;
62673;SDS011;62269;47.594;17.638;2024-01-10T05:08:31;32.25;;;20.50;;
62673;SDS011;62269;47.594;17.638;2024-01-10T05:09:29;30.75;;;19.20;;
62673;SDS011;62269;47.594;17.638;2024-01-10T05:10:28;32.08;;;19.50;;
62673;SDS011;62269;47.594;17.638;2024-01-10T05:11:26;32.35;;;20.80;;
62673;SDS011;62269;47.594;17.638;2024-01-10T05:12:25;29.55;;;19.52;;
62673;SDS011;62269;47.594;17.638;2024-01-10T05:13:23;34.05;;;20.55;;
62673;SDS011;62269;47.594;17.638;2024-01-10T05:14:22;33.83;;;19.67;;
62673;SDS011;62269;47.594;17.638;2024-01-10T05:15:20;33.47;;;20.17;;
62673;SDS011;62269;47.594;17.638;2024-01-10T05:16:19;32.63;;;19.37;;
62673;SDS011;62269;47.594;17.638;2024-01-10T05:17:18;37.33;;;20.48;;
62673;SDS011;62269;47.594;17.638;2024-01-10T05:18:17;32.47;;;21.35;;
62673;SDS011;62269;47.594;17.638;2024-01-10T05:19:16;37.60;;;21.30;;
62673;SDS011;62269;47.594;17.638;2024-01-10T05:20:14;32.55;;;20.35;;
62673;SDS011;62269;47.594;17.638;2024-01-10T05:21:13;33.58;;;19.00;;
62673;SDS011;62269;47.594;17.638;2024-01-10T05:22:11;33.20;;;19.62;;
62673;SDS011;62269;47.594;17.638;2024-01-10T05:23:09;30.88;;;19.50;;
62673;SDS011;62269;47.594;17.638;2024-01-10T05:24:07;32.05;;;19.77;;
62673;SDS011;62269;47.594;17.638;2024-01-10T05:25:06;31.33;;;21.20;;
62673;SDS011;62269;47.594;17.638;2024-01-10T05:26:04;34.88;;;21.02;;
62673;SDS011;62269;47.594;17.638;2024-01-10T05:27:03;37.47;;;21.73;;
62673;SDS011;62269;47.594;17.638;2024-01-10T05:28:01;35.22;;;21.33;;
62673;SDS011;62269;47.594;17.638;2024-01-10T05:28:59;36.53;;;20.80;;
62673;SDS011;62269;47.594;17.638;2024-01-10T05:29:58;34.08;;;20.73;;
62673;SDS011;62269;47.594;17.638;2024-01-10T05:30:57;33.95;;;19.23;;
62673;SDS011;62269;47.594;17.638;2024-01-10T05:31:55;33.85;;;20.05;;
62673;SDS011;62269;47.594;17.638;2024-01-10T05:32:54;30.48;;;18.83;;
62673;SDS011;62269;47.594;17.638;2024-01-10T05:33:52;31.75;;;21.12;;
62673;SDS011;62269;47.594;17.638;2024-01-10T05:34:50;36.65;;;21.50;;
62673;SDS011;62269;47.594;17.638;2024-01-10T05:35:49;35.25;;;20.67;;
62673;SDS011;62269;47.594;17.638;2024-01-10T05:36:47;37.15;;;23.10;;
62673;SDS011;62269;47.594;17.638;2024-01-10T05:37:46;31.60;;;20.60;;
62673;SDS011;62269;47.594;17.638;2024-01-10T05:38:45;40.72;;;21.23;;
62673;SDS011;62269;47.594;17.638;2024-01-10T05:39:43;33.83;;;20.42;;